Last 7 Days

Abernathy 1

Hourly Data | America/Los_Angeles
as of 12/1/21 2:18 AM PST
Date & Time Temp (°F) RH (%) Dew Pt (°F) Wind Spd (mph) Wind Dir (°) Wind Gust (mph) Wind Gst Dir (°) Latest Rain (In) Daily Rain (In) Daily Min Temp (°F) Daily Max Temp (°F)
12/1/21 - 0200 45.2 94 43.7 1.5 SE | 136 4.0 ESE | 108 0.00 0.00 44.0 48.0
12/1/21 - 0100 45.9 94 44.3 1.7 S | 175 5.1 S | 191 0.00 0.00 44.3 48.0
12/1/21 - 0000 45.0 94 43.3 1.4 WNW | 298 3.3 SSE | 167 0.00 0.01 38.9 69.3
11/30/21 - 2300 46.1 93 44.2 0.8 NNW | 338 3.0 NNW | 339 0.00 0.01 38.9 69.3
11/30/21 - 2200 47.1 93 45.1 1.9 NNW | 337 4.2 NW | 324 0.00 0.01 38.9 69.3
11/30/21 - 2100 47.3 92 45.0 0.8 NNW | 336 2.7 N | 352 0.00 0.01 38.9 69.3
11/30/21 - 2000 48.0 90 45.2 1.2 NNW | 342 2.9 NNW | 336 0.00 0.01 38.9 69.3
11/30/21 - 1900 50.1 87 46.3 0.7 NNW | 339 2.1 N | 353 0.00 0.01 38.9 69.3
11/30/21 - 1800 56.0 77 48.8 0.7 WNW | 303 3.5 SW | 220 0.00 0.01 38.9 69.3
11/30/21 - 1700 62.2 67 51.2 2.7 SW | 230 5.4 SW | 226 0.00 0.01 38.9 69.3
11/30/21 - 1600 66.0 58 50.9 4.1 SSW | 213 7.8 SSW | 206 0.00 0.01 38.9 69.3
11/30/21 - 1500 68.4 53 50.6 3.9 SW | 222 7.8 SW | 214 0.00 0.01 38.9 69.3
11/30/21 - 1400 67.8 54 50.7 4.1 SW | 214 7.8 SW | 222 0.00 0.01 38.9 68.4
11/30/21 - 1300 66.5 57 51.0 2.4 SSW | 209 7.1 SW | 224 0.00 0.01 38.9 67.8
11/30/21 - 1200 63.3 64 51.0 2.9 SSE | 148 6.4 SSE | 147 0.00 0.01 38.9 64.2
11/30/21 - 1100 60.7 72 51.4 2.1 SSE | 159 5.1 SSE | 163 0.00 0.01 38.9 62.2
11/30/21 - 1000 55.1 90 52.0 1.2 SW | 230 4.3 SW | 228 0.00 0.01 38.9 58.0
11/30/21 - 0900 46.9 96 45.7 1.3 N | 3 2.5 NNW | 342 0.00 0.01 38.9 50.9
11/30/21 - 0800 41.1 96 40.0 0.8 NNW | 335 2.3 N | 11 0.00 0.01 38.9 46.8
11/30/21 - 0700 39.7 95 38.5 0.6 NNE | 31 1.8 W | 264 0.00 0.01 38.9 46.8
11/30/21 - 0600 40.0 95 38.7 1.2 N | 8 3.9 NNE | 29 0.01 0.01 39.0 46.8
11/30/21 - 0500 40.8 95 39.5 0.5 NNW | 340 1.9 N | 355 0.00 0.00 40.1 46.8
11/30/21 - 0400 42.5 95 41.1 1.0 NNE | 17 2.7 NE | 41 0.00 0.00 41.8 46.8
11/30/21 - 0300 43.8 95 42.4 0.7 W | 270 2.4 W | 279 0.00 0.00 43.1 46.8
11/30/21 - 0200 45.6 95 44.2 1.7 WSW | 255 3.9 W | 261 0.00 0.00 43.6 46.8
11/30/21 - 0100 45.8 94 44.2 0.7 W | 271 2.3 WSW | 254 0.00 0.00 45.1 46.4
11/30/21 - 0000 46.5 94 44.9 1.8 W | 273 4.6 WNW | 302 0.00 0.00 40.8 69.1
11/29/21 - 2300 48.2 94 46.5 2.3 WNW | 286 4.7 NW | 316 0.00 0.00 40.8 69.1
11/29/21 - 2200 47.7 94 46.0 2.1 W | 272 3.5 W | 277 0.00 0.00 40.8 69.1
11/29/21 - 2100 48.3 92 46.2 1.1 WNW | 294 3.2 NW | 317 0.00 0.00 40.8 69.1
11/29/21 - 2000 49.8 91 47.2 0.9 NW | 304 2.0 W | 274 0.00 0.00 40.8 69.1
11/29/21 - 1900 52.4 87 48.8 0.7 NNW | 334 2.3 NNW | 328 0.00 0.00 40.8 69.1
11/29/21 - 1800 58.2 77 51.0 1.4 W | 273 3.7 SW | 224 0.00 0.00 40.8 69.1
11/29/21 - 1700 63.8 68 53.0 3.2 SW | 218 6.4 SW | 220 0.00 0.00 40.8 69.1
11/29/21 - 1600 67.6 62 54.1 2.9 SW | 219 5.4 SE | 140 0.00 0.00 40.8 69.1
11/29/21 - 1500 68.3 61 54.2 3.2 SSW | 195 6.9 SW | 231 0.00 0.00 40.8 69.1
11/29/21 - 1400 68.0 60 53.7 2.9 S | 186 6.5 SSW | 210 0.00 0.00 40.8 69.1
11/29/21 - 1300 66.2 62 53.0 2.9 SSE | 167 6.1 S | 186 0.00 0.00 40.8 67.9
11/29/21 - 1200 64.0 64 51.4 2.3 SSE | 155 5.8 SSE | 168 0.00 0.00 40.8 65.4
11/29/21 - 1100 60.2 70 50.4 1.7 S | 185 4.8 S | 178 0.00 0.00 40.8 62.5
11/29/21 - 1000 54.9 80 48.8 1.6 S | 177 5.0 SSE | 159 0.00 0.00 40.8 58.2
11/29/21 - 0900 50.0 91 47.5 1.9 ESE | 118 4.6 SE | 129 0.00 0.00 40.8 52.6
11/29/21 - 0800 43.9 95 42.5 0.8 N | 349 2.1 NW | 320 0.00 0.00 40.8 47.5
11/29/21 - 0700 41.9 95 40.4 0.9 NW | 321 2.8 NNW | 336 0.00 0.00 40.8 47.5
11/29/21 - 0600 41.5 94 39.9 0.9 N | 355 2.6 N | 349 0.00 0.00 40.8 47.5
11/29/21 - 0500 43.4 94 41.8 0.3 NNE | 19 1.6 N | 10 0.00 0.00 42.5 47.5
11/29/21 - 0400 44.1 94 42.4 1.0 NNW | 335 2.6 NW | 318 0.00 0.00 43.1 47.5
11/29/21 - 0300 45.2 93 43.4 1.2 NW | 325 3.2 NW | 322 0.00 0.00 44.1 47.5
11/29/21 - 0200 45.4 93 43.4 0.8 NW | 316 2.7 NNW | 329 0.00 0.00 44.9 47.5
11/29/21 - 0100 46.9 92 44.8 1.2 NW | 314 3.2 NW | 322 0.00 0.00 45.4 47.5
11/29/21 - 0000 47.4 92 45.2 1.3 NW | 317 3.0 NW | 321 0.00 0.00 39.6 68.9
11/28/21 - 2300 47.7 91 45.2 0.8 NW | 308 2.9 NNW | 327 0.00 0.00 39.6 68.9
11/28/21 - 2200 48.9 90 46.2 1.1 NW | 314 2.8 NW | 322 0.00 0.00 39.6 68.9
11/28/21 - 2100 49.7 89 46.7 1.3 NW | 317 3.5 NW | 310 0.00 0.00 39.6 68.9
11/28/21 - 2000 50.7 88 47.2 1.3 NW | 325 3.2 NNW | 329 0.00 0.00 39.6 68.9
11/28/21 - 1900 52.7 82 47.3 1.0 NNW | 334 2.1 N | 351 0.00 0.00 39.6 68.9
11/28/21 - 1800 57.9 72 48.9 0.9 W | 281 2.5 WSW | 255 0.00 0.00 39.6 68.9
11/28/21 - 1700 63.6 61 49.9 2.2 S | 183 5.5 S | 190 0.00 0.00 39.6 68.9
11/28/21 - 1600 67.3 54 49.8 3.8 SE | 134 7.9 SSE | 152 0.00 0.00 39.6 68.9
11/28/21 - 1500 68.4 52 50.0 3.3 ENE | 69 7.3 NE | 54 0.00 0.00 39.6 68.9
11/28/21 - 1400 67.4 55 50.6 4.0 SSE | 151 8.6 SSE | 151 0.00 0.00 39.6 68.2
11/28/21 - 1300 66.3 54 49.1 3.8 E | 97 8.4 ENE | 70 0.00 0.00 39.6 67.8
11/28/21 - 1200 63.9 59 49.2 4.8 ESE | 108 10.6 SE | 125 0.00 0.00 39.6 65.0
11/28/21 - 1100 59.9 68 49.2 2.5 SW | 222 5.2 SSW | 195 0.00 0.00 39.6 63.1
11/28/21 - 1000 54.1 78 47.5 1.4 SSW | 200 4.2 SSW | 199 0.00 0.00 39.6 56.8
11/28/21 - 0900 47.2 93 45.4 1.2 WNW | 286 2.8 S | 185 0.00 0.00 39.6 51.1
11/28/21 - 0800 41.0 94 39.5 0.7 WNW | 285 3.1 WSW | 258 0.00 0.00 39.6 45.1
11/28/21 - 0700 40.7 94 39.1 0.6 SW | 214 2.7 SSE | 153 0.00 0.00 39.6 45.1
11/28/21 - 0600 40.2 93 38.5 0.3 NW | 311 2.2 WNW | 295 0.00 0.00 39.6 45.1
11/28/21 - 0500 41.8 93 40.0 0.3 W | 278 2.0 WNW | 284 0.00 0.00 40.8 45.1
11/28/21 - 0400 42.7 93 40.8 0.3 SW | 224 1.3 WNW | 301 0.00 0.00 42.2 45.1
11/28/21 - 0300 43.0 92 40.9 0.4 NNE | 24 1.8 ENE | 66 0.00 0.00 42.2 45.1
11/28/21 - 0200 44.4 92 42.1 1.1 NNW | 348 2.8 NNW | 332 0.00 0.00 43.6 45.1
11/28/21 - 0100 44.1 90 41.5 0.7 NNW | 335 2.1 NNW | 334 0.00 0.00 43.7 44.5
11/28/21 - 0000 46.4 88 43.1 1.2 N | 2 3.2 NW | 310 0.00 0.00 37.8 66.9
11/27/21 - 2300 47.4 87 43.8 1.7 WNW | 293 4.1 W | 276 0.00 0.00 37.8 66.9
11/27/21 - 2200 48.8 85 44.6 1.1 NW | 324 3.4 NW | 315 0.00 0.00 37.8 66.9
11/27/21 - 2100 50.5 82 45.2 2.3 NW | 305 5.9 NNW | 332 0.00 0.00 37.8 66.9
11/27/21 - 2000 50.3 83 45.4 1.7 NW | 322 6.0 N | 2 0.00 0.00 37.8 66.9
11/27/21 - 1900 51.8 79 45.6 1.1 NW | 322 3.1 NNW | 331 0.00 0.00 37.8 66.9
11/27/21 - 1800 56.5 68 46.0 1.0 WNW | 297 2.5 NNE | 17 0.00 0.00 37.8 66.9
11/27/21 - 1700 62.8 54 45.7 1.3 S | 184 3.2 S | 173 0.00 0.00 37.8 66.9
11/27/21 - 1600 64.9 50 45.8 2.0 SE | 137 4.0 SE | 135 0.00 0.00 37.8 66.9
11/27/21 - 1500 65.6 48 45.6 2.8 SE | 131 5.7 ESE | 112 0.00 0.00 37.8 66.9
11/27/21 - 1400 66.2 46 45.0 2.5 SE | 132 6.4 SSE | 154 0.00 0.00 37.8 66.9
11/27/21 - 1300 65.1 47 44.4 3.0 ESE | 113 7.4 SE | 145 0.00 0.00 37.8 65.8
11/27/21 - 1200 63.6 51 45.1 3.0 ESE | 110 7.4 SE | 133 0.00 0.00 37.8 64.7
11/27/21 - 1100 59.8 60 45.8 2.1 S | 177 5.4 SSE | 154 0.00 0.00 37.8 61.7
11/27/21 - 1000 55.4 64 43.6 1.0 ENE | 67 4.9 SE | 127 0.00 0.00 37.8 58.1
11/27/21 - 0900 47.8 84 43.0 0.6 NNW | 334 2.3 NNE | 28 0.00 0.00 37.8 51.0
11/27/21 - 0800 39.9 93 37.9 0.6 N | 353 3.4 NNW | 337 0.00 0.00 37.8 44.2
11/27/21 - 0700 38.7 92 36.5 1.1 WNW | 282 3.6 NW | 324 0.00 0.00 37.9 43.3
11/27/21 - 0600 40.0 92 37.8 1.3 SW | 228 3.5 NW | 306 0.00 0.00 39.1 43.3
11/27/21 - 0500 39.6 91 37.3 0.4 N | 358 2.9 ENE | 58 0.00 0.00 39.1 43.3
11/27/21 - 0400 40.3 91 37.9 0.3 NNW | 338 1.6 WNW | 285 0.00 0.00 40.0 43.3
11/27/21 - 0300 41.2 90 38.6 0.7 N | 357 2.8 NW | 325 0.00 0.00 40.5 43.3
11/27/21 - 0200 42.1 90 39.2 0.8 NNW | 331 3.1 NNW | 332 0.00 0.00 41.3 43.3
11/27/21 - 0100 42.9 89 39.8 0.7 NE | 36 1.8 ENE | 64 0.00 0.00 42.4 43.3
11/27/21 - 0000 43.9 87 40.4 0.7 WNW | 291 2.0 WNW | 295 0.00 0.00 36.4 67.2
11/26/21 - 2300 44.6 86 40.7 1.3 W | 270 2.9 W | 261 0.00 0.00 36.4 67.2
11/26/21 - 2200 46.2 85 41.9 0.7 WNW | 282 3.2 WNW | 290 0.00 0.00 36.4 67.2
11/26/21 - 2100 46.8 85 42.4 1.1 NNW | 329 3.2 N | 5 0.00 0.00 36.4 67.2
11/26/21 - 2000 47.7 81 42.2 0.8 NNW | 331 1.9 NNW | 330 0.00 0.00 36.4 67.2
11/26/21 - 1900 51.1 74 42.9 0.5 NW | 304 2.5 NW | 313 0.00 0.00 36.4 67.2
11/26/21 - 1800 56.8 58 42.3 1.8 W | 267 3.4 WSW | 257 0.00 0.00 36.4 67.2
11/26/21 - 1700 60.9 49 41.8 2.6 SW | 219 5.1 SW | 227 0.00 0.00 36.4 67.2
11/26/21 - 1600 64.4 43 41.6 2.6 SW | 222 6.0 SSW | 198 0.00 0.00 36.4 67.2
11/26/21 - 1500 66.0 41 41.9 2.2 SSW | 196 5.7 SW | 224 0.00 0.00 36.4 67.2
11/26/21 - 1400 65.3 43 42.4 2.2 S | 191 5.7 SSW | 197 0.00 0.00 36.4 66.2
11/26/21 - 1300 63.3 46 42.1 2.3 SSE | 165 5.3 SSE | 147 0.00 0.00 36.4 64.6
11/26/21 - 1200 60.7 52 42.9 2.0 SW | 220 4.9 W | 264 0.00 0.00 36.4 63.5
11/26/21 - 1100 57.3 57 42.2 2.1 SSW | 195 6.0 SSW | 196 0.00 0.00 36.4 59.0
11/26/21 - 1000 53.3 65 41.7 1.6 SW | 217 4.7 SSE | 149 0.00 0.00 36.4 56.3
11/26/21 - 0900 45.3 80 39.5 0.5 N | 9 2.1 NNW | 329 0.00 0.00 36.4 50.0
11/26/21 - 0800 37.3 90 34.6 1.1 NNE | 12 3.7 NNW | 338 0.00 0.00 36.4 43.0
11/26/21 - 0700 37.0 89 34.1 1.2 N | 354 3.2 N | 355 0.00 0.00 36.4 43.0
11/26/21 - 0600 38.4 88 35.2 1.7 WNW | 300 4.7 W | 269 0.00 0.00 37.1 43.0
11/26/21 - 0500 39.7 88 36.6 1.5 NNW | 339 4.1 NE | 49 0.00 0.00 39.1 43.0
11/26/21 - 0400 40.7 87 37.2 0.6 NW | 304 1.9 NNW | 339 0.00 0.00 39.8 43.0
11/26/21 - 0300 41.5 87 37.9 1.0 NNW | 330 3.3 NW | 325 0.00 0.00 40.9 43.0
11/26/21 - 0200 41.2 86 37.3 0.8 NW | 318 2.6 WNW | 297 0.00 0.00 40.9 43.0
11/26/21 - 0100 42.5 84 38.0 1.0 NW | 304 2.8 NNE | 16 0.00 0.00 41.3 43.0
11/26/21 - 0000 42.5 84 38.0 0.7 NW | 324 2.7 NW | 325 0.00 0.00 32.2 64.5
11/25/21 - 2300 43.4 82 38.4 1.2 NW | 310 3.6 NNW | 327 0.00 0.00 32.2 64.5
11/25/21 - 2200 43.1 82 38.1 1.4 NW | 313 4.4 WNW | 300 0.00 0.00 32.2 64.5
11/25/21 - 2100 43.1 82 38.0 0.9 NW | 323 3.0 NNW | 330 0.00 0.00 32.2 64.5
11/25/21 - 2000 45.2 78 38.8 0.8 NW | 321 3.6 NNW | 327 0.00 0.00 32.2 64.5
11/25/21 - 1900 52.7 71 43.3 2.4 ESE | 110 5.4 NNW | 330 0.00 0.00 32.2 64.5
11/25/21 - 1800 54.0 71 44.8 2.4 SSE | 150 5.7 SSE | 165 0.00 0.00 32.2 64.5
11/25/21 - 1700 59.2 50 40.1 3.2 SE | 137 7.1 ENE | 65 0.00 0.00 32.2 64.5
11/25/21 - 1600 62.8 34 34.0 5.1 E | 89 9.2 E | 96 0.00 0.00 32.2 64.5
11/25/21 - 1500 64.0 31 33.1 5.6 ENE | 74 11.0 ENE | 65 0.00 0.00 32.2 64.5
11/25/21 - 1400 63.0 34 34.2 6.3 E | 86 12.0 E | 83 0.00 0.00 32.2 63.7
11/25/21 - 1300 60.8 48 40.9 5.4 ESE | 108 10.4 ESE | 120 0.00 0.00 32.2 62.3
11/25/21 - 1200 59.6 49 40.5 5.1 ESE | 105 10.5 SE | 136 0.00 0.00 32.2 60.9
11/25/21 - 1100 56.5 57 41.5 4.4 E | 95 8.9 E | 100 0.00 0.00 32.2 58.8
11/25/21 - 1000 50.3 69 40.5 2.3 E | 93 7.5 ENE | 63 0.00 0.00 32.2 54.5
11/25/21 - 0900 41.6 81 36.1 0.8 NNW | 331 3.1 SE | 124 0.00 0.00 32.2 46.0
11/25/21 - 0800 33.8 90 31.3 1.0 N | 356 2.8 WNW | 303 0.00 0.00 32.2 37.6
11/25/21 - 0700 32.6 90 29.9 0.5 NNW | 348 2.3 N | 7 0.00 0.00 32.2 37.1
11/25/21 - 0600 33.0 89 30.2 1.0 NW | 319 2.7 NNW | 332 0.00 0.00 32.5 37.1
11/25/21 - 0500 33.7 89 30.7 1.5 NNW | 342 3.8 ENE | 58 0.00 0.00 32.6 37.1
11/25/21 - 0400 34.9 87 31.5 1.5 WNW | 299 5.3 ENE | 76 0.00 0.00 33.9 37.1
11/25/21 - 0300 35.6 87 32.0 1.2 SW | 232 4.5 WNW | 302 0.00 0.00 34.2 37.1
11/25/21 - 0200 35.0 88 31.7 1.3 N | 2 3.6 NW | 326 0.00 0.00 34.2 37.1
11/25/21 - 0100 35.6 85 31.6 0.9 NNW | 334 3.3 WNW | 302 0.00 0.00 34.3 37.1
11/25/21 - 0000 37.0 83 32.4 0.6 WNW | 302 2.5 WNW | 285 0.00 0.00 36.2 69.3
11/24/21 - 2300 38.5 82 33.5 0.7 N | 5 2.5 NW | 322 0.00 0.00 37.9 69.3
11/24/21 - 2200 39.8 79 33.7 0.7 NNW | 333 2.5 NW | 305 0.00 0.00 38.8 69.3
11/24/21 - 2100 41.9 77 35.2 1.1 NNW | 339 3.6 NW | 323 0.00 0.00 40.1 69.3
11/24/21 - 2000 43.6 75 36.2 0.9 NW | 321 2.8 NW | 322 0.00 0.00 40.1 69.3
11/24/21 - 1900 47.5 70 38.1 1.0 NW | 317 3.0 NW | 319 0.00 0.00 40.1 69.3
11/24/21 - 1800 55.0 52 37.5 1.6 SSE | 160 3.8 S | 173 0.00 0.00 40.1 69.3
11/24/21 - 1700 60.3 42 37.2 3.4 WSW | 251 7.1 WSW | 249 0.00 0.00 40.1 69.3
11/24/21 - 1600 66.5 27 31.7 3.7 SW | 221 7.3 SW | 224 0.00 0.00 40.1 69.3
11/24/21 - 1500 68.5 25 31.3 3.2 SW | 220 7.0 SW | 228 0.00 0.00 40.1 69.3
11/24/21 - 1400 66.6 26 30.8 3.2 SW | 224 8.7 SSW | 192 0.00 0.00 40.1 67.6
11/24/21 - 1300 64.9 28 30.8 3.6 SW | 221 7.8 SW | 219 0.00 0.00 40.1 66.1
11/24/21 - 1200 63.2 30 31.5 3.4 SSW | 206 7.0 SSW | 212 0.00 0.00 40.1 64.4
11/24/21 - 1100 60.7 34 32.5 3.3 S | 170 7.7 SSE | 161 0.00 0.00 40.1 63.1
11/24/21 - 1000 57.7 40 33.6 1.9 SE | 130 5.4 SE | 142 0.00 0.00 40.1 59.9
11/24/21 - 0900 50.1 56 34.8 2.1 NNE | 19 4.8 NE | 56 0.00 0.00 40.1 58.0
11/24/21 - 0800 44.6 60 31.5 2.2 WSW | 247 7.4 SE | 137 0.00 0.00 40.1 58.0
11/24/21 - 0700 48.7 39 24.7 2.2 S | 175 6.9 SW | 214 0.00 0.00 43.0 58.0
11/24/21 - 0600 53.7 29 22.5 5.7 NW | 325 13.4 NNW | 338 0.00 0.00 51.7 58.0
11/24/21 - 0500 54.3 27 21.1 5.1 N | 350 15.0 N | 354 0.00 0.00 53.0 58.0
11/24/21 - 0400 54.4 28 22.2 5.1 NNW | 336 12.3 NW | 317 0.00 0.00 53.4 58.0
11/24/21 - 0300 55.5 28 23.1 5.2 NNW | 343 11.7 N | 355 0.00 0.00 54.3 58.0
Max 68.5 96 54.2 6.3 - 15.0 - 0.01 0.01 54.3 69.3
Avg 50.9 74 41.4 1.8 - 4.6 - 0.00 - - -
Min 32.6 25 21.1 0.3 - 1.3 - 0.00 0.00 32.2 37.1
Total - - - - - - - 0.01 - - -
Tip: Bookmark this page for easy future reference